createdAt,value
2024-04-24T00:01:18.856Z,14.70
2024-04-24T00:03:45.822Z,15.03
2024-04-24T00:06:12.675Z,15.10
2024-04-24T00:08:39.541Z,15.37
2024-04-24T00:11:06.518Z,14.92
2024-04-24T00:13:33.417Z,15.63
2024-04-24T00:16:03.093Z,15.42
2024-04-24T00:18:30.043Z,15.85
2024-04-24T00:20:56.946Z,15.35
2024-04-24T00:23:23.848Z,16.22
2024-04-24T00:25:50.801Z,16.01
2024-04-24T00:28:17.653Z,15.49
2024-04-24T00:30:44.499Z,16.07
2024-04-24T00:33:14.015Z,16.03
2024-04-24T00:35:40.923Z,15.18
2024-04-24T00:38:07.782Z,16.00
2024-04-24T00:40:37.704Z,16.26
2024-04-24T00:43:04.680Z,15.83
2024-04-24T00:45:31.484Z,15.92
2024-04-24T00:47:58.380Z,16.15
2024-04-24T00:50:28.128Z,16.52
2024-04-24T00:52:55.037Z,15.80
2024-04-24T00:55:21.965Z,16.19
2024-04-24T00:57:48.893Z,16.07
2024-04-24T01:00:16.091Z,15.97
2024-04-24T01:02:42.991Z,15.91
2024-04-24T01:05:09.982Z,16.24
2024-04-24T01:07:39.555Z,16.64
2024-04-24T01:10:16.523Z,16.92
2024-04-24T01:12:45.126Z,16.60
2024-04-24T01:15:12.031Z,16.59
2024-04-24T01:17:39.337Z,16.99
2024-04-24T01:20:07.260Z,16.63
2024-04-24T01:22:42.170Z,17.03
2024-04-24T01:25:12.547Z,16.51
2024-04-24T01:27:42.016Z,16.57
2024-04-24T01:30:08.996Z,16.61
2024-04-24T01:32:36.110Z,17.02
2024-04-24T01:35:03.315Z,16.76
2024-04-24T01:37:30.228Z,17.04
2024-04-24T01:39:57.060Z,16.78
2024-04-24T01:42:23.894Z,16.17
2024-04-24T01:44:53.332Z,17.14
2024-04-24T01:47:20.271Z,17.40
2024-04-24T01:49:47.201Z,17.26
2024-04-24T01:52:14.065Z,17.36
2024-04-24T01:54:40.945Z,17.28
2024-04-24T01:57:07.772Z,17.57
2024-04-24T01:59:34.590Z,17.29
2024-04-24T02:02:04.107Z,17.06
2024-04-24T02:04:30.993Z,17.14
2024-04-24T02:06:57.848Z,17.84
2024-04-24T02:09:24.660Z,18.03
2024-04-24T02:11:59.566Z,17.47
2024-04-24T02:14:33.700Z,17.67
2024-04-24T02:17:03.304Z,17.29
2024-04-24T02:19:30.163Z,18.03
2024-04-24T02:21:56.996Z,17.48
2024-04-24T02:24:23.898Z,17.87
2024-04-24T02:26:50.795Z,18.18
2024-04-24T02:29:17.762Z,18.24
2024-04-24T02:31:44.687Z,17.50
2024-04-24T02:34:14.287Z,18.69
2024-04-24T02:36:41.127Z,21.47
2024-04-24T02:39:08.005Z,21.12
2024-04-24T02:41:34.823Z,21.07
2024-04-24T02:44:01.665Z,19.84
2024-04-24T02:46:28.554Z,18.40
2024-04-24T02:48:55.424Z,18.24
2024-04-24T02:51:24.928Z,18.30
2024-04-24T02:53:51.736Z,18.54
2024-04-24T02:56:18.700Z,18.52
2024-04-24T02:58:45.659Z,18.45
2024-04-24T03:01:12.692Z,18.21
2024-04-24T03:03:39.703Z,18.52
2024-04-24T03:06:06.637Z,18.13
2024-04-24T03:08:36.163Z,18.32
2024-04-24T03:11:03.205Z,18.24
2024-04-24T03:13:30.134Z,18.44
2024-04-24T03:15:56.964Z,18.75
2024-04-24T03:18:23.826Z,18.69
2024-04-24T03:20:50.711Z,17.82
2024-04-24T03:23:17.719Z,17.82
2024-04-24T03:25:47.326Z,18.95
2024-04-24T03:28:14.233Z,18.84
2024-04-24T03:30:41.164Z,19.07
2024-04-24T03:33:08.144Z,18.94
2024-04-24T03:35:35.082Z,19.00
2024-04-24T03:38:01.914Z,19.12
2024-04-24T03:40:28.773Z,19.98
2024-04-24T03:42:58.261Z,19.28
2024-04-24T03:45:25.049Z,19.33
2024-04-24T03:47:52.697Z,19.48
2024-04-24T03:50:19.614Z,19.61
2024-04-24T03:52:46.494Z,19.54
2024-04-24T03:55:13.410Z,19.98
2024-04-24T03:57:40.229Z,19.58
2024-04-24T04:00:11.305Z,19.59
2024-04-24T04:02:40.956Z,19.30
2024-04-24T04:05:07.842Z,19.08
2024-04-24T04:07:34.699Z,19.94
2024-04-24T04:10:01.609Z,19.60
2024-04-24T04:12:28.424Z,19.50
2024-04-24T04:14:55.244Z,19.60
2024-04-24T04:17:24.910Z,19.99
2024-04-24T04:19:51.838Z,19.66
2024-04-24T04:22:18.675Z,19.86
2024-04-24T04:24:45.522Z,20.38
2024-04-24T04:27:12.360Z,20.37
2024-04-24T04:29:39.217Z,21.05
2024-04-24T04:32:06.145Z,20.30
2024-04-24T04:34:35.633Z,20.66
2024-04-24T04:37:02.473Z,20.69
2024-04-24T04:39:29.384Z,20.67
2024-04-24T04:41:56.217Z,20.99
2024-04-24T04:44:23.215Z,20.99
2024-04-24T04:46:50.354Z,20.80
2024-04-24T04:49:17.352Z,20.60
2024-04-24T04:51:46.876Z,19.95
2024-04-24T04:54:13.834Z,19.62
2024-04-24T04:56:40.760Z,20.52
2024-04-24T04:59:07.644Z,20.49
2024-04-24T05:01:34.508Z,20.01
2024-04-24T05:04:01.410Z,20.12
2024-04-24T05:06:28.688Z,19.54
2024-04-24T05:08:58.208Z,20.49
2024-04-24T05:11:25.094Z,20.27
2024-04-24T05:13:52.044Z,20.36
2024-04-24T05:16:18.986Z,20.87
2024-04-24T05:18:46.054Z,20.42
2024-04-24T05:21:12.932Z,21.03
2024-04-24T05:23:39.859Z,21.39
2024-04-24T05:26:09.387Z,20.84
2024-04-24T05:28:36.277Z,20.99
2024-04-24T05:31:03.281Z,20.89
2024-04-24T05:33:30.187Z,21.25
2024-04-24T05:35:57.052Z,21.02
2024-04-24T05:38:23.949Z,20.59
2024-04-24T05:40:50.841Z,20.84
2024-04-24T05:43:20.301Z,20.19
2024-04-24T05:45:47.194Z,20.43
2024-04-24T05:48:14.192Z,19.88
2024-04-24T05:50:41.244Z,19.85
2024-04-24T05:53:08.086Z,19.36
2024-04-24T05:55:34.936Z,19.31
2024-04-24T05:58:01.755Z,19.53
2024-04-24T06:00:31.214Z,20.33
2024-04-24T06:02:58.149Z,18.92
2024-04-24T06:05:25.019Z,19.18
2024-04-24T06:07:51.962Z,18.76
2024-04-24T06:10:18.927Z,17.85
2024-04-24T06:12:45.836Z,18.03
2024-04-24T06:15:12.859Z,17.92
2024-04-24T06:17:42.464Z,17.50
2024-04-24T06:20:10.108Z,17.91
2024-04-24T06:22:37.004Z,17.08
2024-04-24T06:25:04.042Z,16.82
2024-04-24T06:27:30.965Z,16.85
2024-04-24T06:29:57.777Z,16.59
2024-04-24T06:32:24.740Z,17.89
2024-04-24T06:34:54.317Z,17.79
2024-04-24T06:37:21.297Z,17.99
2024-04-24T06:39:48.213Z,17.72
2024-04-24T06:42:15.073Z,17.92
2024-04-24T06:44:41.931Z,19.03
2024-04-24T06:47:09.054Z,18.28
2024-04-24T06:49:35.937Z,17.91
2024-04-24T06:52:05.418Z,16.57
2024-04-24T06:54:32.274Z,16.32
2024-04-24T06:56:59.194Z,16.38
2024-04-24T06:59:26.285Z,16.26
2024-04-24T07:01:53.229Z,15.67
2024-04-24T07:04:21.181Z,15.69
2024-04-24T07:06:48.144Z,15.48
2024-04-24T07:09:17.585Z,14.66
2024-04-24T07:11:44.487Z,13.98
2024-04-24T07:14:11.434Z,13.02
2024-04-24T07:16:38.339Z,12.57
2024-04-24T07:19:05.324Z,12.04
2024-04-24T07:21:32.239Z,12.04
2024-04-24T07:23:59.225Z,11.36
2024-04-24T07:26:28.899Z,10.53
2024-04-24T07:28:55.827Z,10.45
2024-04-24T07:31:22.706Z,10.97
2024-04-24T07:33:49.557Z,11.00
2024-04-24T07:36:16.409Z,10.00
2024-04-24T07:38:44.036Z,10.34
2024-04-24T07:41:10.950Z,10.33
2024-04-24T07:43:40.445Z,9.85
2024-04-24T07:46:07.265Z,9.25
2024-04-24T07:48:34.303Z,8.29
2024-04-24T07:51:01.299Z,8.57
2024-04-24T07:53:28.338Z,8.19
2024-04-24T07:55:55.340Z,7.60
2024-04-24T07:58:22.248Z,7.41
2024-04-24T08:00:51.924Z,8.01
2024-04-24T08:03:19.003Z,8.45
2024-04-24T08:05:45.933Z,8.55
2024-04-24T08:08:12.894Z,8.33
2024-04-24T08:10:39.760Z,8.10
2024-04-24T08:13:06.604Z,8.09
2024-04-24T08:15:33.451Z,7.73
2024-04-24T08:18:03.083Z,7.49
2024-04-24T08:20:29.988Z,7.76
2024-04-24T08:22:56.916Z,7.65
2024-04-24T08:25:23.778Z,7.48
2024-04-24T08:27:50.919Z,7.44
2024-04-24T08:30:17.782Z,6.86
2024-04-24T08:32:44.903Z,7.44
2024-04-24T08:35:15.102Z,7.39
2024-04-24T08:37:41.918Z,7.38
2024-04-24T08:40:09.289Z,7.41
2024-04-24T08:42:36.173Z,7.04
2024-04-24T08:45:03.192Z,7.56
2024-04-24T08:47:30.160Z,7.40
2024-04-24T08:49:57.080Z,7.49
2024-04-24T08:52:26.528Z,7.28
2024-04-24T08:54:57.588Z,7.52
2024-04-24T08:57:24.566Z,7.24
2024-04-24T08:59:51.418Z,6.67
2024-04-24T09:02:18.409Z,6.07
2024-04-24T09:04:45.325Z,6.30
2024-04-24T09:07:13.282Z,6.35
2024-04-24T09:09:42.736Z,5.89
2024-04-24T09:12:10.085Z,6.19
2024-04-24T09:14:36.990Z,5.97
2024-04-24T09:17:04.121Z,5.92
2024-04-24T09:19:31.620Z,5.95
2024-04-24T09:21:58.454Z,6.37
2024-04-24T09:24:25.381Z,6.16
2024-04-24T09:26:54.828Z,6.04
2024-04-24T09:29:21.656Z,6.40
2024-04-24T09:31:49.062Z,6.28
2024-04-24T09:34:15.884Z,6.04
2024-04-24T09:36:43.495Z,6.06
2024-04-24T09:39:10.666Z,6.04
2024-04-24T09:41:37.650Z,5.74
2024-04-24T09:44:11.056Z,5.82
2024-04-24T09:46:37.956Z,5.70
2024-04-24T09:49:05.033Z,6.03
2024-04-24T09:51:32.255Z,5.67
2024-04-24T09:53:59.076Z,5.86
2024-04-24T09:56:26.108Z,5.63
2024-04-24T09:58:55.449Z,5.98
2024-04-24T10:01:26.176Z,5.57
2024-04-24T10:03:53.368Z,5.38
2024-04-24T10:06:21.646Z,5.85
2024-04-24T10:08:48.636Z,5.36
2024-04-24T10:11:15.544Z,5.86
2024-04-24T10:13:42.837Z,5.77
2024-04-24T10:16:09.679Z,5.31
2024-04-24T10:18:39.251Z,5.38
2024-04-24T10:21:06.724Z,5.25
2024-04-24T10:23:33.639Z,5.39
2024-04-24T10:26:00.545Z,5.25
2024-04-24T10:28:27.634Z,5.00
2024-04-24T10:30:54.533Z,5.16
2024-04-24T10:33:21.646Z,4.81
2024-04-24T10:35:51.244Z,4.80
2024-04-24T10:38:18.324Z,4.67
2024-04-24T10:40:46.106Z,4.67
2024-04-24T10:43:14.477Z,4.56
2024-04-24T10:45:42.778Z,4.71
2024-04-24T10:48:10.051Z,5.01
2024-04-24T10:50:37.004Z,5.40
2024-04-24T10:53:06.755Z,5.37
2024-04-24T10:55:33.725Z,5.55
2024-04-24T10:58:00.581Z,5.45
2024-04-24T11:00:29.918Z,5.27
2024-04-24T11:03:00.577Z,4.86
2024-04-24T11:05:32.884Z,5.31
2024-04-24T11:08:00.326Z,4.68
2024-04-24T11:10:29.899Z,4.58
2024-04-24T11:12:56.823Z,4.49
2024-04-24T11:15:24.263Z,4.24
2024-04-24T11:17:51.366Z,4.45
2024-04-24T11:20:18.514Z,4.37
2024-04-24T11:22:45.515Z,4.47
2024-04-24T11:25:13.526Z,4.36
2024-04-24T11:27:44.092Z,4.01
2024-04-24T11:30:11.224Z,4.05
2024-04-24T11:32:38.241Z,4.12
2024-04-24T11:35:05.669Z,3.85
2024-04-24T11:37:32.572Z,4.31
2024-04-24T11:39:59.452Z,3.86
2024-04-24T11:42:26.348Z,4.49
2024-04-24T11:44:55.795Z,4.09
2024-04-24T11:47:22.712Z,3.76
2024-04-24T11:49:50.622Z,3.70
2024-04-24T11:52:17.444Z,3.81
2024-04-24T11:54:45.742Z,3.92
2024-04-24T11:57:12.695Z,3.73
2024-04-24T11:59:42.919Z,3.95
2024-04-24T12:02:12.349Z,4.31
2024-04-24T12:04:44.256Z,3.87
2024-04-24T12:07:11.191Z,4.04
2024-04-24T12:09:38.094Z,3.65
2024-04-24T12:12:05.462Z,3.57
2024-04-24T12:14:32.424Z,3.35
2024-04-24T12:16:59.334Z,3.12
2024-04-24T12:19:28.879Z,3.01
2024-04-24T12:21:55.714Z,3.19
2024-04-24T12:24:22.581Z,2.99
2024-04-24T12:26:49.577Z,2.88
2024-04-24T12:29:16.533Z,3.12
2024-04-24T12:31:43.404Z,4.37
2024-04-24T12:34:10.359Z,3.73
2024-04-24T12:36:39.959Z,3.69
2024-04-24T12:39:06.936Z,4.30
2024-04-24T12:41:33.785Z,4.48
2024-04-24T12:44:00.692Z,4.45
2024-04-24T12:46:27.579Z,4.96
2024-04-24T12:48:54.730Z,4.99
2024-04-24T12:51:21.633Z,5.04
2024-04-24T12:53:51.125Z,5.13
2024-04-24T12:56:18.078Z,5.04
2024-04-24T12:58:45.168Z,4.64
2024-04-24T13:01:17.990Z,4.55
2024-04-24T13:03:44.925Z,4.54
2024-04-24T13:06:11.776Z,4.70
2024-04-24T13:08:38.641Z,4.70
2024-04-24T13:11:08.363Z,4.84
2024-04-24T13:13:35.209Z,4.82
2024-04-24T13:16:02.024Z,5.28
2024-04-24T13:18:29.982Z,5.10
2024-04-24T13:20:57.006Z,5.30
2024-04-24T13:23:23.890Z,5.45
2024-04-24T13:25:50.755Z,5.59
2024-04-24T13:28:20.223Z,5.52
2024-04-24T13:30:47.109Z,5.55
2024-04-24T13:33:13.978Z,5.39
2024-04-24T13:35:40.831Z,5.47
2024-04-24T13:38:07.671Z,5.38
2024-04-24T13:40:34.532Z,5.18
2024-04-24T13:43:01.405Z,5.89
2024-04-24T13:45:30.937Z,5.63
2024-04-24T13:47:57.926Z,6.40
2024-04-24T13:50:24.911Z,6.23
2024-04-24T13:52:51.872Z,6.37
2024-04-24T13:55:18.748Z,6.40
2024-04-24T13:57:45.634Z,6.09
2024-04-24T14:00:12.836Z,6.12
2024-04-24T14:02:42.413Z,7.18
2024-04-24T14:05:09.331Z,8.65
2024-04-24T14:07:36.170Z,9.93
2024-04-24T14:10:03.181Z,9.64
2024-04-24T14:12:31.907Z,9.05
2024-04-24T14:14:59.709Z,8.46
2024-04-24T14:17:26.705Z,8.61
2024-04-24T14:19:56.331Z,8.73
2024-04-24T14:22:23.248Z,8.20
2024-04-24T14:24:50.075Z,8.33
2024-04-24T14:27:16.900Z,8.17
2024-04-24T14:29:43.719Z,8.16
2024-04-24T14:32:10.632Z,8.08
2024-04-24T14:34:37.560Z,7.80
2024-04-24T14:37:07.018Z,7.31
2024-04-24T14:39:35.396Z,7.51
2024-04-24T14:42:02.659Z,7.27
2024-04-24T14:44:29.571Z,7.00
2024-04-24T14:46:56.456Z,6.60
2024-04-24T14:49:23.309Z,6.54
2024-04-24T14:51:50.223Z,5.98
2024-04-24T14:54:19.767Z,6.33
2024-04-24T14:56:46.623Z,5.42
2024-04-24T14:59:13.760Z,5.15
2024-04-24T15:01:40.743Z,4.80
2024-04-24T15:04:07.612Z,4.75
2024-04-24T15:06:34.473Z,4.56
2024-04-24T15:09:01.378Z,4.53
2024-04-24T15:11:31.019Z,4.52
2024-04-24T15:13:58.280Z,4.50
2024-04-24T15:16:25.233Z,4.77
2024-04-24T15:18:52.097Z,5.12
2024-04-24T15:21:18.998Z,5.91
2024-04-24T15:23:45.830Z,6.13
2024-04-24T15:26:13.032Z,6.32
2024-04-24T15:28:42.508Z,6.79
2024-04-24T15:31:10.719Z,6.04
2024-04-24T15:33:40.247Z,5.65
2024-04-24T15:36:08.913Z,6.29
2024-04-24T15:38:35.793Z,6.37
2024-04-24T15:41:02.750Z,6.71
2024-04-24T15:43:29.627Z,7.32
2024-04-24T15:45:59.215Z,7.42
2024-04-24T15:48:26.223Z,7.15
2024-04-24T15:50:53.257Z,7.14
2024-04-24T15:53:20.207Z,6.75
2024-04-24T15:55:47.104Z,6.25
2024-04-24T15:58:13.973Z,6.53
2024-04-24T16:00:40.818Z,6.37
2024-04-24T16:03:10.371Z,5.99
2024-04-24T16:05:37.347Z,6.16
2024-04-24T16:08:05.126Z,5.93
2024-04-24T16:10:31.978Z,5.85
2024-04-24T16:12:58.907Z,5.76
2024-04-24T16:15:25.781Z,5.57
2024-04-24T16:17:52.690Z,5.54
2024-04-24T16:20:22.415Z,5.59
2024-04-24T16:22:49.322Z,5.42
2024-04-24T16:25:16.225Z,5.44
2024-04-24T16:27:43.161Z,5.05
2024-04-24T16:30:10.502Z,4.60
2024-04-24T16:32:37.571Z,4.54
2024-04-24T16:35:05.002Z,4.93
2024-04-24T16:37:34.607Z,4.51
2024-04-24T16:40:01.470Z,4.36
2024-04-24T16:42:28.325Z,4.52
2024-04-24T16:44:55.368Z,4.30
2024-04-24T16:47:22.653Z,3.61
2024-04-24T16:49:49.558Z,3.53
2024-04-24T16:52:16.383Z,3.46
2024-04-24T16:54:45.909Z,3.33
2024-04-24T16:57:12.765Z,3.37
2024-04-24T16:59:39.700Z,3.25
2024-04-24T17:02:06.680Z,3.58
2024-04-24T17:04:33.831Z,3.70
2024-04-24T17:07:00.825Z,3.60
2024-04-24T17:09:27.767Z,3.35
2024-04-24T17:11:57.458Z,3.59
2024-04-24T17:14:24.645Z,3.41
2024-04-24T17:16:51.510Z,3.28
2024-04-24T17:19:18.669Z,3.43
2024-04-24T17:21:45.699Z,3.71
2024-04-24T17:24:12.627Z,3.56
2024-04-24T17:26:39.718Z,3.14
2024-04-24T17:29:09.305Z,2.86
2024-04-24T17:31:36.329Z,2.98
2024-04-24T17:34:03.189Z,3.26
2024-04-24T17:36:30.233Z,3.97
2024-04-24T17:38:57.107Z,14.77
2024-04-24T17:41:24.005Z,8.56
2024-04-24T17:43:52.611Z,5.65
2024-04-24T17:46:22.049Z,5.11
2024-04-24T17:48:49.023Z,3.80
2024-04-24T17:51:15.958Z,2.40
2024-04-24T17:53:42.844Z,1.93
2024-04-24T17:56:09.710Z,1.81
2024-04-24T17:58:36.635Z,1.86
2024-04-24T18:01:03.805Z,1.35
2024-04-24T18:03:33.462Z,1.43
2024-04-24T18:06:00.372Z,1.59
2024-04-24T18:08:27.414Z,1.72
2024-04-24T18:10:54.378Z,1.74
2024-04-24T18:13:21.234Z,1.69
2024-04-24T18:15:48.138Z,1.63
2024-04-24T18:18:15.064Z,1.58
2024-04-24T18:20:44.852Z,1.76
2024-04-24T18:23:12.129Z,1.79
2024-04-24T18:25:38.986Z,1.69
2024-04-24T18:28:06.147Z,1.66
2024-04-24T18:30:33.019Z,1.68
2024-04-24T18:33:00.060Z,1.90
2024-04-24T18:35:27.129Z,1.86
2024-04-24T18:37:56.698Z,1.92
2024-04-24T18:40:23.718Z,2.04
2024-04-24T18:42:50.664Z,1.99
2024-04-24T18:45:17.633Z,2.07
2024-04-24T18:47:44.776Z,2.80
2024-04-24T18:50:11.905Z,2.88
2024-04-24T18:52:38.863Z,2.02
2024-04-24T18:55:08.561Z,2.22
2024-04-24T18:57:35.435Z,2.28
2024-04-24T19:00:02.529Z,2.11
2024-04-24T19:02:29.610Z,2.24
2024-04-24T19:04:56.563Z,3.34
2024-04-24T19:07:23.500Z,6.02
2024-04-24T19:09:50.329Z,6.74
2024-04-24T19:12:19.945Z,3.06
2024-04-24T19:14:46.908Z,2.82
2024-04-24T19:17:13.887Z,3.13
2024-04-24T19:19:40.830Z,2.63
2024-04-24T19:22:07.729Z,2.38
2024-04-24T19:24:34.572Z,2.36
2024-04-24T19:27:01.386Z,2.42
2024-04-24T19:29:31.062Z,2.29
2024-04-24T19:31:58.058Z,2.38
2024-04-24T19:34:24.970Z,2.46
2024-04-24T19:36:52.352Z,2.39
2024-04-24T19:39:19.829Z,2.42
2024-04-24T19:41:46.858Z,2.49
2024-04-24T19:44:14.143Z,2.47
2024-04-24T19:46:43.815Z,2.49
2024-04-24T19:49:10.682Z,2.44
2024-04-24T19:51:37.615Z,2.53
2024-04-24T19:54:04.612Z,2.50
2024-04-24T19:56:31.615Z,2.39
2024-04-24T19:58:58.468Z,2.69
2024-04-24T20:01:25.335Z,2.58
2024-04-24T20:03:55.168Z,2.63
2024-04-24T20:06:22.798Z,2.67
2024-04-24T20:08:49.987Z,2.69
2024-04-24T20:11:17.336Z,2.55
2024-04-24T20:13:47.664Z,2.54
2024-04-24T20:16:14.628Z,2.56
2024-04-24T20:18:41.534Z,2.50
2024-04-24T20:21:15.931Z,2.33
2024-04-24T20:23:43.039Z,3.11
2024-04-24T20:26:11.675Z,3.53
2024-04-24T20:28:38.588Z,2.96
2024-04-24T20:31:05.492Z,2.37
2024-04-24T20:33:33.604Z,2.54
2024-04-24T20:36:00.546Z,1.96
2024-04-24T20:38:30.876Z,1.89
2024-04-24T20:40:57.699Z,2.06
2024-04-24T20:43:24.579Z,1.92
2024-04-24T20:45:51.837Z,1.93
2024-04-24T20:48:19.133Z,2.02
2024-04-24T20:50:46.395Z,2.00
2024-04-24T20:53:13.480Z,2.05
2024-04-24T20:55:43.451Z,2.10
2024-04-24T20:58:10.302Z,1.92
2024-04-24T21:00:37.424Z,2.00
2024-04-24T21:03:04.722Z,2.03
2024-04-24T21:05:31.763Z,2.31
2024-04-24T21:07:58.580Z,1.96
2024-04-24T21:10:25.397Z,2.39
2024-04-24T21:12:54.815Z,2.48
2024-04-24T21:15:21.667Z,2.66
2024-04-24T21:17:48.563Z,2.43
2024-04-24T21:20:15.613Z,2.56
2024-04-24T21:22:42.476Z,2.59
2024-04-24T21:25:09.305Z,2.81
2024-04-24T21:27:36.131Z,2.57
2024-04-24T21:30:06.234Z,2.71
2024-04-24T21:32:33.430Z,3.00
2024-04-24T21:35:00.423Z,3.17
2024-04-24T21:37:31.413Z,3.34
2024-04-24T21:39:59.357Z,2.97
2024-04-24T21:42:26.607Z,2.92
2024-04-24T21:44:53.552Z,2.72
2024-04-24T21:47:23.094Z,3.16
2024-04-24T21:49:50.193Z,3.19
2024-04-24T21:52:17.451Z,3.00
2024-04-24T21:54:44.436Z,2.79
2024-04-24T21:57:11.389Z,2.60
2024-04-24T21:59:38.525Z,2.65
2024-04-24T22:02:05.777Z,2.74
2024-04-24T22:04:35.253Z,2.58
2024-04-24T22:07:02.219Z,2.69
2024-04-24T22:09:29.028Z,2.75
2024-04-24T22:11:55.962Z,2.65
2024-04-24T22:14:22.893Z,2.48
2024-04-24T22:16:49.723Z,2.57
2024-04-24T22:19:16.941Z,2.69
2024-04-24T22:21:46.516Z,2.85
2024-04-24T22:24:13.750Z,2.81
2024-04-24T22:26:40.664Z,2.97
2024-04-24T22:29:07.554Z,2.98
2024-04-24T22:31:34.403Z,3.00
2024-04-24T22:34:01.257Z,3.15
2024-04-24T22:36:28.176Z,3.33
2024-04-24T22:38:57.738Z,3.41
2024-04-24T22:41:24.610Z,3.65
2024-04-24T22:43:51.468Z,3.59
2024-04-24T22:46:18.330Z,3.54
2024-04-24T22:48:45.338Z,3.53
2024-04-24T22:51:12.412Z,3.46
2024-04-24T22:53:39.310Z,3.51
2024-04-24T22:56:08.901Z,3.31
2024-04-24T22:58:35.799Z,3.55
2024-04-24T23:01:02.659Z,3.73
2024-04-24T23:03:29.525Z,3.47
2024-04-24T23:05:56.347Z,3.61
2024-04-24T23:08:23.196Z,3.56
2024-04-24T23:10:50.404Z,3.76
2024-04-24T23:13:19.990Z,3.45
2024-04-24T23:15:46.903Z,3.53
2024-04-24T23:18:13.781Z,3.75
2024-04-24T23:20:41.415Z,3.61
2024-04-24T23:23:08.584Z,3.60
2024-04-24T23:25:35.469Z,3.58
2024-04-24T23:28:02.271Z,3.49
2024-04-24T23:30:31.848Z,3.46
2024-04-24T23:32:58.844Z,3.24
2024-04-24T23:35:25.774Z,3.14
2024-04-24T23:37:52.629Z,3.04
2024-04-24T23:40:19.478Z,3.19
2024-04-24T23:42:46.298Z,3.17
2024-04-24T23:45:13.309Z,3.27
2024-04-24T23:47:42.945Z,3.19
2024-04-24T23:50:09.902Z,3.05
2024-04-24T23:52:37.010Z,3.20
2024-04-24T23:55:04.534Z,3.25
2024-04-24T23:57:31.420Z,3.49
2024-04-24T23:59:58.298Z,3.41
